sensor_id;sensor_type;location;lat;lon;timestamp;P1;durP1;ratioP1;P2;durP2;ratioP2
12912;SDS011;6524;51.368;11.984;2022-08-21T04:03:47;6.70;;;6.03;;
12912;SDS011;6524;51.368;11.984;2022-08-21T04:08:47;6.03;;;5.53;;
12912;SDS011;6524;51.368;11.984;2022-08-21T04:13:48;8.52;;;6.32;;
12912;SDS011;6524;51.368;11.984;2022-08-21T04:18:48;8.65;;;7.10;;
12912;SDS011;6524;51.368;11.984;2022-08-21T04:23:48;7.95;;;7.15;;
12912;SDS011;6524;51.368;11.984;2022-08-21T04:28:49;9.88;;;7.82;;
12912;SDS011;6524;51.368;11.984;2022-08-21T04:33:49;8.47;;;6.80;;
12912;SDS011;6524;51.368;11.984;2022-08-21T04:38:50;7.57;;;6.53;;
12912;SDS011;6524;51.368;11.984;2022-08-21T04:43:51;7.88;;;6.53;;
12912;SDS011;6524;51.368;11.984;2022-08-21T04:48:51;9.55;;;6.25;;
12912;SDS011;6524;51.368;11.984;2022-08-21T04:53:52;8.07;;;6.20;;
12912;SDS011;6524;51.368;11.984;2022-08-21T04:58:55;8.43;;;5.85;;
12912;SDS011;6524;51.368;11.984;2022-08-21T05:03:59;7.25;;;5.72;;
12912;SDS011;6524;51.368;11.984;2022-08-21T05:09:02;6.53;;;5.45;;
12912;SDS011;6524;51.368;11.984;2022-08-21T05:14:03;7.35;;;5.65;;
12912;SDS011;6524;51.368;11.984;2022-08-21T05:19:05;7.07;;;5.72;;
12912;SDS011;6524;51.368;11.984;2022-08-21T05:24:06;6.45;;;5.78;;
12912;SDS011;6524;51.368;11.984;2022-08-21T05:29:06;6.13;;;5.53;;
12912;SDS011;6524;51.368;11.984;2022-08-21T05:34:07;6.25;;;5.20;;
12912;SDS011;6524;51.368;11.984;2022-08-21T05:39:08;5.72;;;5.10;;
12912;SDS011;6524;51.368;11.984;2022-08-21T05:44:08;5.82;;;5.07;;
12912;SDS011;6524;51.368;11.984;2022-08-21T05:49:08;5.53;;;4.97;;
12912;SDS011;6524;51.368;11.984;2022-08-21T05:54:08;6.37;;;4.73;;
12912;SDS011;6524;51.368;11.984;2022-08-21T05:59:09;5.28;;;4.80;;
12912;SDS011;6524;51.368;11.984;2022-08-21T06:04:11;7.35;;;5.32;;
12912;SDS011;6524;51.368;11.984;2022-08-21T06:09:11;5.70;;;4.78;;
12912;SDS011;6524;51.368;11.984;2022-08-21T06:14:15;5.60;;;5.10;;
12912;SDS011;6524;51.368;11.984;2022-08-21T06:19:16;5.70;;;5.10;;
12912;SDS011;6524;51.368;11.984;2022-08-21T06:24:16;5.82;;;4.50;;
12912;SDS011;6524;51.368;11.984;2022-08-21T06:29:16;5.22;;;4.32;;
12912;SDS011;6524;51.368;11.984;2022-08-21T06:34:17;6.32;;;4.30;;
12912;SDS011;6524;51.368;11.984;2022-08-21T06:39:18;6.43;;;4.22;;
12912;SDS011;6524;51.368;11.984;2022-08-21T06:44:19;4.50;;;3.55;;
12912;SDS011;6524;51.368;11.984;2022-08-21T06:49:19;4.40;;;3.33;;
12912;SDS011;6524;51.368;11.984;2022-08-21T06:54:19;7.33;;;3.87;;
12912;SDS011;6524;51.368;11.984;2022-08-21T06:59:20;5.28;;;3.40;;
12912;SDS011;6524;51.368;11.984;2022-08-21T07:04:20;5.43;;;3.57;;
12912;SDS011;6524;51.368;11.984;2022-08-21T07:09:20;4.65;;;3.20;;
12912;SDS011;6524;51.368;11.984;2022-08-21T07:14:21;8.02;;;3.80;;
12912;SDS011;6524;51.368;11.984;2022-08-21T07:19:22;5.03;;;3.33;;
12912;SDS011;6524;51.368;11.984;2022-08-21T07:24:23;6.40;;;3.67;;
12912;SDS011;6524;51.368;11.984;2022-08-21T07:29:23;5.25;;;3.20;;
12912;SDS011;6524;51.368;11.984;2022-08-21T07:34:23;4.90;;;3.55;;
12912;SDS011;6524;51.368;11.984;2022-08-21T07:39:24;5.65;;;3.17;;
12912;SDS011;6524;51.368;11.984;2022-08-21T07:44:24;5.00;;;3.10;;
12912;SDS011;6524;51.368;11.984;2022-08-21T07:49:25;3.92;;;3.20;;
12912;SDS011;6524;51.368;11.984;2022-08-21T07:54:25;5.77;;;3.00;;
12912;SDS011;6524;51.368;11.984;2022-08-21T07:59:26;5.65;;;3.00;;
12912;SDS011;6524;51.368;11.984;2022-08-21T08:04:26;5.50;;;2.90;;
12912;SDS011;6524;51.368;11.984;2022-08-21T08:09:26;5.40;;;2.80;;
12912;SDS011;6524;51.368;11.984;2022-08-21T08:14:27;3.73;;;2.50;;
12912;SDS011;6524;51.368;11.984;2022-08-21T08:19:27;4.53;;;2.28;;
12912;SDS011;6524;51.368;11.984;2022-08-21T08:24:28;4.35;;;2.47;;
12912;SDS011;6524;51.368;11.984;2022-08-21T08:29:28;4.93;;;2.67;;
12912;SDS011;6524;51.368;11.984;2022-08-21T08:34:30;5.10;;;2.67;;
12912;SDS011;6524;51.368;11.984;2022-08-21T08:39:31;3.63;;;2.20;;
12912;SDS011;6524;51.368;11.984;2022-08-21T08:44:32;3.63;;;2.35;;
12912;SDS011;6524;51.368;11.984;2022-08-21T08:49:38;4.65;;;2.20;;
12912;SDS011;6524;51.368;11.984;2022-08-21T08:54:44;3.28;;;2.55;;
12912;SDS011;6524;51.368;11.984;2022-08-21T08:59:50;5.45;;;2.50;;
12912;SDS011;6524;51.368;11.984;2022-08-21T09:04:52;3.08;;;2.03;;
12912;SDS011;6524;51.368;11.984;2022-08-21T09:25:38;4.25;;;2.80;;
12912;SDS011;6524;51.368;11.984;2022-08-21T09:30:42;4.30;;;2.40;;
12912;SDS011;6524;51.368;11.984;2022-08-21T09:35:53;3.03;;;2.30;;
12912;SDS011;6524;51.368;11.984;2022-08-21T09:41:03;3.72;;;2.75;;
12912;SDS011;6524;51.368;11.984;2022-08-21T09:46:08;3.15;;;2.60;;
12912;SDS011;6524;51.368;11.984;2022-08-21T09:51:12;4.00;;;2.50;;
12912;SDS011;6524;51.368;11.984;2022-08-21T09:56:17;4.43;;;2.63;;
12912;SDS011;6524;51.368;11.984;2022-08-21T10:01:42;3.78;;;2.50;;
12912;SDS011;6524;51.368;11.984;2022-08-21T10:06:47;3.65;;;2.42;;
12912;SDS011;6524;51.368;11.984;2022-08-21T10:22:46;4.30;;;2.72;;
12912;SDS011;6524;51.368;11.984;2022-08-21T10:28:01;3.78;;;2.20;;
12912;SDS011;6524;51.368;11.984;2022-08-21T10:33:21;3.03;;;2.30;;
12912;SDS011;6524;51.368;11.984;2022-08-21T10:38:56;5.20;;;2.42;;
12912;SDS011;6524;51.368;11.984;2022-08-21T11:00:21;5.03;;;2.80;;
12912;SDS011;6524;51.368;11.984;2022-08-21T11:05:38;4.53;;;2.60;;
12912;SDS011;6524;51.368;11.984;2022-08-21T11:21:27;4.35;;;2.53;;
12912;SDS011;6524;51.368;11.984;2022-08-21T11:26:39;3.67;;;2.67;;
12912;SDS011;6524;51.368;11.984;2022-08-21T11:48:21;4.65;;;2.58;;
12912;SDS011;6524;51.368;11.984;2022-08-21T11:53:33;4.05;;;2.78;;
12912;SDS011;6524;51.368;11.984;2022-08-21T11:58:41;4.05;;;2.70;;
12912;SDS011;6524;51.368;11.984;2022-08-21T12:04:00;4.53;;;2.80;;
12912;SDS011;6524;51.368;11.984;2022-08-21T12:09:05;3.90;;;2.70;;
12912;SDS011;6524;51.368;11.984;2022-08-21T12:29:15;4.15;;;2.97;;
12912;SDS011;6524;51.368;11.984;2022-08-21T12:34:25;4.55;;;2.85;;
12912;SDS011;6524;51.368;11.984;2022-08-21T12:39:36;3.97;;;2.95;;
12912;SDS011;6524;51.368;11.984;2022-08-21T12:44:46;4.35;;;2.90;;
12912;SDS011;6524;51.368;11.984;2022-08-21T12:49:54;6.15;;;3.20;;
12912;SDS011;6524;51.368;11.984;2022-08-21T12:55:03;4.72;;;3.03;;
12912;SDS011;6524;51.368;11.984;2022-08-21T13:00:05;4.57;;;3.10;;
12912;SDS011;6524;51.368;11.984;2022-08-21T13:05:19;3.83;;;3.40;;
12912;SDS011;6524;51.368;11.984;2022-08-21T13:10:35;5.22;;;3.35;;
12912;SDS011;6524;51.368;11.984;2022-08-21T13:15:37;4.88;;;3.38;;
12912;SDS011;6524;51.368;11.984;2022-08-21T13:20:39;4.57;;;3.15;;
12912;SDS011;6524;51.368;11.984;2022-08-21T13:25:43;4.45;;;2.80;;
12912;SDS011;6524;51.368;11.984;2022-08-21T13:30:44;4.73;;;3.10;;
12912;SDS011;6524;51.368;11.984;2022-08-21T13:40:58;3.80;;;3.00;;
12912;SDS011;6524;51.368;11.984;2022-08-21T13:46:09;4.53;;;3.13;;
12912;SDS011;6524;51.368;11.984;2022-08-21T13:51:12;4.00;;;2.83;;
12912;SDS011;6524;51.368;11.984;2022-08-21T13:56:23;4.68;;;3.03;;
12912;SDS011;6524;51.368;11.984;2022-08-21T14:06:59;5.22;;;3.13;;
12912;SDS011;6524;51.368;11.984;2022-08-21T14:12:02;4.60;;;3.17;;
12912;SDS011;6524;51.368;11.984;2022-08-21T14:17:13;5.20;;;2.97;;
12912;SDS011;6524;51.368;11.984;2022-08-21T14:22:31;5.97;;;3.10;;
12912;SDS011;6524;51.368;11.984;2022-08-21T14:27:39;5.70;;;3.28;;
12912;SDS011;6524;51.368;11.984;2022-08-21T14:32:44;4.20;;;3.00;;
12912;SDS011;6524;51.368;11.984;2022-08-21T14:37:45;4.05;;;2.90;;
12912;SDS011;6524;51.368;11.984;2022-08-21T14:42:46;4.55;;;3.30;;
12912;SDS011;6524;51.368;11.984;2022-08-21T14:47:47;4.43;;;3.40;;
12912;SDS011;6524;51.368;11.984;2022-08-21T14:52:47;6.82;;;3.63;;
12912;SDS011;6524;51.368;11.984;2022-08-21T14:57:48;4.27;;;3.27;;
12912;SDS011;6524;51.368;11.984;2022-08-21T15:02:52;4.63;;;3.30;;
12912;SDS011;6524;51.368;11.984;2022-08-21T15:07:53;3.70;;;3.10;;
12912;SDS011;6524;51.368;11.984;2022-08-21T15:12:55;4.68;;;3.10;;
12912;SDS011;6524;51.368;11.984;2022-08-21T15:17:56;5.63;;;3.53;;
12912;SDS011;6524;51.368;11.984;2022-08-21T15:22:56;6.03;;;4.20;;
12912;SDS011;6524;51.368;11.984;2022-08-21T15:27:56;6.30;;;3.13;;
12912;SDS011;6524;51.368;11.984;2022-08-21T15:32:58;4.00;;;3.28;;
12912;SDS011;6524;51.368;11.984;2022-08-21T15:37:59;4.43;;;3.50;;
12912;SDS011;6524;51.368;11.984;2022-08-21T15:43:01;4.57;;;3.08;;
12912;SDS011;6524;51.368;11.984;2022-08-21T15:48:02;4.32;;;3.25;;
12912;SDS011;6524;51.368;11.984;2022-08-21T15:53:04;4.97;;;3.30;;
12912;SDS011;6524;51.368;11.984;2022-08-21T15:58:06;3.80;;;3.40;;
12912;SDS011;6524;51.368;11.984;2022-08-21T16:03:07;5.00;;;3.38;;
12912;SDS011;6524;51.368;11.984;2022-08-21T16:08:11;4.85;;;3.30;;
12912;SDS011;6524;51.368;11.984;2022-08-21T16:18:35;6.13;;;3.40;;
12912;SDS011;6524;51.368;11.984;2022-08-21T16:23:35;4.73;;;3.70;;
12912;SDS011;6524;51.368;11.984;2022-08-21T16:28:38;5.90;;;3.40;;
12912;SDS011;6524;51.368;11.984;2022-08-21T16:33:42;5.57;;;3.47;;
12912;SDS011;6524;51.368;11.984;2022-08-21T16:38:45;7.55;;;3.45;;
12912;SDS011;6524;51.368;11.984;2022-08-21T16:43:47;3.40;;;3.10;;
12912;SDS011;6524;51.368;11.984;2022-08-21T16:48:49;4.18;;;3.33;;
12912;SDS011;6524;51.368;11.984;2022-08-21T16:53:50;7.28;;;6.45;;
12912;SDS011;6524;51.368;11.984;2022-08-21T16:58:50;5.88;;;4.05;;
12912;SDS011;6524;51.368;11.984;2022-08-21T17:03:53;5.68;;;3.33;;
12912;SDS011;6524;51.368;11.984;2022-08-21T17:08:54;4.88;;;3.10;;
12912;SDS011;6524;51.368;11.984;2022-08-21T17:13:55;3.72;;;3.10;;
12912;SDS011;6524;51.368;11.984;2022-08-21T17:18:57;5.95;;;3.30;;
12912;SDS011;6524;51.368;11.984;2022-08-21T17:23:57;5.10;;;3.50;;
12912;SDS011;6524;51.368;11.984;2022-08-21T17:28:58;4.43;;;3.50;;
12912;SDS011;6524;51.368;11.984;2022-08-21T17:33:58;4.68;;;3.42;;
12912;SDS011;6524;51.368;11.984;2022-08-21T17:38:59;3.45;;;3.15;;
12912;SDS011;6524;51.368;11.984;2022-08-21T17:44:00;4.50;;;3.40;;
12912;SDS011;6524;51.368;11.984;2022-08-21T17:49:06;4.45;;;3.45;;
12912;SDS011;6524;51.368;11.984;2022-08-21T17:54:07;4.25;;;3.38;;
12912;SDS011;6524;51.368;11.984;2022-08-21T17:59:07;4.15;;;3.25;;
12912;SDS011;6524;51.368;11.984;2022-08-21T18:04:10;4.82;;;3.40;;
12912;SDS011;6524;51.368;11.984;2022-08-21T18:09:10;4.35;;;3.75;;
12912;SDS011;6524;51.368;11.984;2022-08-21T18:14:12;5.22;;;3.60;;
12912;SDS011;6524;51.368;11.984;2022-08-21T18:19:13;5.88;;;4.10;;
12912;SDS011;6524;51.368;11.984;2022-08-21T18:24:16;6.88;;;3.95;;
12912;SDS011;6524;51.368;11.984;2022-08-21T18:29:17;4.22;;;3.40;;
12912;SDS011;6524;51.368;11.984;2022-08-21T18:34:25;4.43;;;3.45;;
12912;SDS011;6524;51.368;11.984;2022-08-21T18:39:33;4.85;;;3.55;;
12912;SDS011;6524;51.368;11.984;2022-08-21T18:44:35;5.28;;;4.28;;
12912;SDS011;6524;51.368;11.984;2022-08-21T18:49:35;5.03;;;3.22;;
12912;SDS011;6524;51.368;11.984;2022-08-21T18:54:36;5.07;;;3.70;;
12912;SDS011;6524;51.368;11.984;2022-08-21T18:59:37;5.18;;;3.70;;
12912;SDS011;6524;51.368;11.984;2022-08-21T19:04:38;4.68;;;3.60;;
12912;SDS011;6524;51.368;11.984;2022-08-21T19:09:39;5.65;;;3.70;;
12912;SDS011;6524;51.368;11.984;2022-08-21T19:14:41;5.63;;;3.60;;
12912;SDS011;6524;51.368;11.984;2022-08-21T19:19:41;4.97;;;3.50;;
12912;SDS011;6524;51.368;11.984;2022-08-21T19:24:42;4.22;;;3.67;;
12912;SDS011;6524;51.368;11.984;2022-08-21T19:29:42;6.20;;;3.85;;
12912;SDS011;6524;51.368;11.984;2022-08-21T19:34:43;6.35;;;3.78;;
12912;SDS011;6524;51.368;11.984;2022-08-21T19:39:44;4.47;;;3.70;;
12912;SDS011;6524;51.368;11.984;2022-08-21T19:44:44;5.20;;;3.65;;
12912;SDS011;6524;51.368;11.984;2022-08-21T19:49:47;5.75;;;4.15;;
12912;SDS011;6524;51.368;11.984;2022-08-21T19:54:52;7.78;;;4.78;;
12912;SDS011;6524;51.368;11.984;2022-08-21T19:59:52;4.70;;;3.90;;
12912;SDS011;6524;51.368;11.984;2022-08-21T20:04:56;5.25;;;4.35;;
12912;SDS011;6524;51.368;11.984;2022-08-21T20:09:56;7.75;;;4.30;;
12912;SDS011;6524;51.368;11.984;2022-08-21T20:14:57;7.82;;;4.80;;
12912;SDS011;6524;51.368;11.984;2022-08-21T20:19:58;5.93;;;4.20;;
12912;SDS011;6524;51.368;11.984;2022-08-21T20:24:58;5.78;;;4.10;;
12912;SDS011;6524;51.368;11.984;2022-08-21T20:29:59;5.78;;;4.15;;
12912;SDS011;6524;51.368;11.984;2022-08-21T20:35:00;6.63;;;3.83;;
12912;SDS011;6524;51.368;11.984;2022-08-21T20:40:01;5.25;;;3.90;;
12912;SDS011;6524;51.368;11.984;2022-08-21T20:45:03;5.95;;;4.05;;
12912;SDS011;6524;51.368;11.984;2022-08-21T20:50:06;6.10;;;4.30;;
12912;SDS011;6524;51.368;11.984;2022-08-21T20:55:12;5.40;;;4.03;;
12912;SDS011;6524;51.368;11.984;2022-08-21T21:00:20;4.70;;;4.10;;
12912;SDS011;6524;51.368;11.984;2022-08-21T21:05:27;5.95;;;4.15;;
12912;SDS011;6524;51.368;11.984;2022-08-21T21:10:56;8.23;;;4.55;;
12912;SDS011;6524;51.368;11.984;2022-08-21T21:16:03;6.38;;;4.35;;
12912;SDS011;6524;51.368;11.984;2022-08-21T21:21:14;5.65;;;4.40;;
12912;SDS011;6524;51.368;11.984;2022-08-21T21:31:32;5.45;;;4.68;;
12912;SDS011;6524;51.368;11.984;2022-08-21T21:42:10;5.32;;;4.47;;
12912;SDS011;6524;51.368;11.984;2022-08-21T21:47:29;5.38;;;4.10;;
12912;SDS011;6524;51.368;11.984;2022-08-21T21:52:50;5.00;;;4.35;;
12912;SDS011;6524;51.368;11.984;2022-08-21T22:03:08;5.63;;;4.32;;
12912;SDS011;6524;51.368;11.984;2022-08-21T22:24:25;5.20;;;4.20;;
12912;SDS011;6524;51.368;11.984;2022-08-21T22:29:50;6.25;;;4.63;;
